Time;durP1;ratioP1;P1;durP2;ratioP2;P2;SDS_P1;SDS_P2;PMS_P1;PMS_P2;Temp;Humidity;BMP_temperature;BMP_pressure;BME280_temperature;BME280_humidity;BME280_pressure;Samples;Min_cycle;Max_cycle;Signal;HPM_P1;HPM_P2
2023/11/26 00:02:21;;;;;;;34.75;32.95;;;;;;;;;;5023491;28;20030;-64
2023/11/26 00:04:47;;;;;;;33.15;31.42;;;;;;;;;;5017965;28;20398;-56
2023/11/26 00:07:12;;;;;;;34.65;32.85;;;;;;;;;;5036794;28;20612;-55
2023/11/26 00:09:37;;;;;;;33.72;32.00;;;;;;;;;;5020907;28;20022;-64
2023/11/26 00:12:07;;;;;;;32.33;30.65;;;;;;;;;;5023428;28;20038;-63
2023/11/26 00:14:36;;;;;;;32.22;30.55;;;;;;;;;;5022501;28;20026;-63
2023/11/26 00:17:01;;;;;;;32.13;30.42;;;;;;;;;;5018995;28;20037;-63
2023/11/26 00:19:29;;;;;;;35.40;33.50;;;;;;;;;;5017762;28;20045;-64
2023/11/26 00:21:54;;;;;;;32.80;31.08;;;;;;;;;;5022358;28;20152;-65
2023/11/26 00:24:20;;;;;;;35.80;33.10;;;;;;;;;;5020490;28;20151;-64
2023/11/26 00:26:46;;;;;;;32.10;30.40;;;;;;;;;;5018124;28;20047;-64
2023/11/26 00:29:12;;;;;;;34.05;32.30;;;;;;;;;;5021093;28;20037;-65
2023/11/26 00:31:37;;;;;;;33.67;31.83;;;;;;;;;;5017392;28;20113;-57
2023/11/26 00:34:02;;;;;;;35.20;33.00;;;;;;;;;;5021202;28;20029;-53
2023/11/26 00:36:28;;;;;;;33.25;31.52;;;;;;;;;;5022924;28;20045;-53
2023/11/26 00:38:53;;;;;;;33.55;31.83;;;;;;;;;;5022613;28;20029;-58
2023/11/26 00:41:18;;;;;;;33.92;32.20;;;;;;;;;;5022253;28;20045;-53
2023/11/26 00:43:44;;;;;;;32.10;30.45;;;;;;;;;;5020800;28;20029;-51
2023/11/26 00:46:10;;;;;;;32.67;30.98;;;;;;;;;;5015270;28;20565;-63
2023/11/26 00:48:35;;;;;;;31.98;30.08;;;;;;;;;;5017035;28;20030;-62
2023/11/26 00:51:01;;;;;;;31.17;29.48;;;;;;;;;;5017465;28;20073;-63
2023/11/26 00:53:26;;;;;;;29.45;27.92;;;;;;;;;;5017685;28;20057;-52
2023/11/26 00:55:52;;;;;;;31.30;29.58;;;;;;;;;;5019610;28;20033;-54
2023/11/26 00:58:19;;;;;;;29.48;27.90;;;;;;;;;;5016565;28;20087;-63
2023/11/26 01:00:45;;;;;;;30.13;28.58;;;;;;;;;;5017230;28;21169;-52
2023/11/26 01:03:10;;;;;;;31.13;29.52;;;;;;;;;;5018624;28;20263;-54
2023/11/26 01:05:35;;;;;;;31.05;29.42;;;;;;;;;;5023915;28;20032;-50
2023/11/26 01:08:01;;;;;;;29.83;28.27;;;;;;;;;;5020872;28;20063;-52
2023/11/26 01:10:26;;;;;;;29.90;28.35;;;;;;;;;;5021591;28;20061;-61
2023/11/26 01:12:52;;;;;;;30.52;28.95;;;;;;;;;;5022567;28;20041;-52
2023/11/26 01:15:18;;;;;;;30.23;28.67;;;;;;;;;;5022141;28;20029;-54
2023/11/26 01:17:43;;;;;;;30.80;29.17;;;;;;;;;;5022240;28;20045;-55
2023/11/26 01:20:10;;;;;;;29.77;28.20;;;;;;;;;;5019617;28;20372;-56
2023/11/26 01:22:36;;;;;;;31.30;29.63;;;;;;;;;;5022021;28;20127;-57
2023/11/26 01:25:02;;;;;;;29.23;27.70;;;;;;;;;;5020810;28;20383;-54
2023/11/26 01:27:27;;;;;;;31.23;29.63;;;;;;;;;;5022478;28;20108;-63
2023/11/26 01:29:52;;;;;;;31.63;30.00;;;;;;;;;;5020802;28;20122;-55
2023/11/26 01:32:18;;;;;;;31.45;29.83;;;;;;;;;;5021491;28;20029;-63
2023/11/26 01:34:43;;;;;;;29.90;28.30;;;;;;;;;;5018927;28;20044;-63
2023/11/26 01:37:09;;;;;;;30.58;28.98;;;;;;;;;;5015158;28;20080;-62
2023/11/26 01:39:34;;;;;;;29.95;28.40;;;;;;;;;;5015111;28;20041;-62
2023/11/26 01:42:00;;;;;;;30.20;28.63;;;;;;;;;;5016699;28;20526;-52
2023/11/26 01:44:25;;;;;;;29.90;28.35;;;;;;;;;;5019208;28;20041;-62
2023/11/26 01:46:51;;;;;;;30.60;28.98;;;;;;;;;;5014542;28;20043;-62
2023/11/26 01:49:17;;;;;;;31.75;30.05;;;;;;;;;;5019302;28;20115;-62
2023/11/26 01:51:43;;;;;;;28.90;27.38;;;;;;;;;;5016690;28;20040;-54
2023/11/26 01:54:10;;;;;;;31.40;29.60;;;;;;;;;;5024286;28;20411;-57
2023/11/26 01:56:36;;;;;;;31.42;29.83;;;;;;;;;;5019682;28;20423;-55
2023/11/26 01:59:03;;;;;;;31.48;29.80;;;;;;;;;;5021708;28;20075;-63
2023/11/26 02:01:29;;;;;;;30.08;28.27;;;;;;;;;;5020303;28;20033;-63
2023/11/26 02:03:54;;;;;;;28.52;27.02;;;;;;;;;;5013283;28;20415;-63
2023/11/26 02:06:20;;;;;;;30.67;29.08;;;;;;;;;;5019551;28;20026;-54
2023/11/26 02:08:46;;;;;;;29.00;27.48;;;;;;;;;;5015060;28;20044;-52
2023/11/26 02:11:11;;;;;;;32.63;29.75;;;;;;;;;;5026136;28;20033;-52
2023/11/26 02:13:53;;;;;;;30.00;28.40;;;;;;;;;;5016773;28;20059;-54
2023/11/26 02:16:18;;;;;;;29.83;28.13;;;;;;;;;;5023091;28;20030;-53
2023/11/26 02:18:43;;;;;;;29.67;28.08;;;;;;;;;;5019827;28;20557;-61
2023/11/26 02:21:09;;;;;;;26.98;25.58;;;;;;;;;;5019681;28;20030;-61
2023/11/26 02:23:36;;;;;;;26.45;25.02;;;;;;;;;;5015692;28;20518;-62
2023/11/26 02:26:05;;;;;;;26.17;24.77;;;;;;;;;;5019277;28;20037;-61
2023/11/26 02:28:31;;;;;;;26.83;25.42;;;;;;;;;;5020366;28;20049;-62
2023/11/26 02:30:56;;;;;;;25.50;24.15;;;;;;;;;;5021473;28;20037;-63
2023/11/26 02:33:22;;;;;;;26.48;25.08;;;;;;;;;;5014967;28;20054;-64
2023/11/26 02:35:47;;;;;;;27.83;26.33;;;;;;;;;;5013125;28;20037;-63
2023/11/26 02:38:13;;;;;;;26.65;25.20;;;;;;;;;;5015285;28;20034;-63
2023/11/26 02:40:38;;;;;;;27.42;25.98;;;;;;;;;;5017973;28;20034;-54
2023/11/26 02:43:04;;;;;;;27.73;26.23;;;;;;;;;;5019501;28;20037;-53
2023/11/26 02:45:29;;;;;;;27.55;25.92;;;;;;;;;;5016393;28;20040;-53
2023/11/26 02:47:55;;;;;;;28.08;26.58;;;;;;;;;;5025284;28;20099;-63
2023/11/26 02:50:20;;;;;;;26.00;24.63;;;;;;;;;;5021396;28;20047;-64
2023/11/26 02:52:45;;;;;;;28.20;26.73;;;;;;;;;;5019617;28;20473;-53
2023/11/26 02:55:11;;;;;;;27.05;25.50;;;;;;;;;;5013272;28;20498;-57
2023/11/26 02:57:36;;;;;;;27.10;25.67;;;;;;;;;;5017445;28;20152;-55
2023/11/26 03:00:06;;;;;;;26.00;24.63;;;;;;;;;;5017103;28;20073;-56
2023/11/26 03:02:34;;;;;;;25.90;24.52;;;;;;;;;;5014870;28;20521;-55
2023/11/26 03:05:05;;;;;;;26.40;25.00;;;;;;;;;;5014191;28;20113;-63
2023/11/26 03:07:32;;;;;;;25.95;24.60;;;;;;;;;;5017209;28;20038;-55
2023/11/26 03:13:06;;;;;;;25.70;24.35;;;;;;;;;;5022679;28;20116;-63
2023/11/26 03:15:33;;;;;;;27.50;26.05;;;;;;;;;;5019709;28;20030;-52
2023/11/26 03:17:58;;;;;;;27.45;25.92;;;;;;;;;;5020833;28;20033;-53
2023/11/26 03:20:26;;;;;;;28.08;26.60;;;;;;;;;;5021950;28;20026;-63
2023/11/26 03:22:53;;;;;;;27.83;26.38;;;;;;;;;;5024062;28;20108;-63
2023/11/26 03:25:18;;;;;;;30.05;28.45;;;;;;;;;;5020727;28;20033;-63
2023/11/26 03:27:44;;;;;;;29.65;28.05;;;;;;;;;;5023317;28;20354;-63
2023/11/26 03:30:09;;;;;;;29.73;28.17;;;;;;;;;;5016386;28;20044;-51
2023/11/26 03:32:35;;;;;;;29.13;27.60;;;;;;;;;;5019337;28;20030;-49
2023/11/26 03:35:01;;;;;;;29.67;28.10;;;;;;;;;;5024933;28;20057;-62
2023/11/26 03:37:26;;;;;;;32.85;31.08;;;;;;;;;;5021594;28;20068;-53
2023/11/26 03:39:52;;;;;;;31.35;29.70;;;;;;;;;;5024001;28;20022;-53
2023/11/26 03:42:19;;;;;;;29.58;28.02;;;;;;;;;;5026175;28;20038;-62
2023/11/26 03:44:44;;;;;;;30.98;29.33;;;;;;;;;;5024299;28;20033;-53
2023/11/26 03:47:10;;;;;;;30.63;29.02;;;;;;;;;;5026623;28;20044;-51
2023/11/26 03:49:37;;;;;;;29.80;28.25;;;;;;;;;;5021961;28;20041;-52
2023/11/26 03:52:03;;;;;;;29.67;28.13;;;;;;;;;;5024591;28;20034;-53
2023/11/26 03:54:28;;;;;;;30.77;29.08;;;;;;;;;;5025460;28;20052;-54
2023/11/26 03:56:53;;;;;;;29.42;27.88;;;;;;;;;;5023120;28;20385;-63
2023/11/26 03:59:19;;;;;;;30.30;28.73;;;;;;;;;;5017424;28;20049;-63
2023/11/26 04:01:44;;;;;;;29.95;28.38;;;;;;;;;;5021344;28;20037;-53
2023/11/26 04:04:10;;;;;;;31.35;29.73;;;;;;;;;;5002408;28;20037;-63
2023/11/26 04:06:35;;;;;;;31.33;29.70;;;;;;;;;;5018673;28;20648;-62
2023/11/26 04:09:03;;;;;;;30.13;28.55;;;;;;;;;;5015797;28;20221;-63
2023/11/26 04:11:28;;;;;;;31.13;29.50;;;;;;;;;;5018926;28;20143;-63
2023/11/26 04:13:54;;;;;;;33.20;31.38;;;;;;;;;;5018119;28;20045;-63
2023/11/26 04:16:19;;;;;;;33.33;31.58;;;;;;;;;;5017613;28;20056;-54
2023/11/26 04:18:45;;;;;;;33.03;31.13;;;;;;;;;;5023446;28;20033;-53
2023/11/26 04:21:12;;;;;;;30.63;29.02;;;;;;;;;;5023069;28;20092;-54
2023/11/26 04:23:38;;;;;;;33.50;31.75;;;;;;;;;;5020987;28;20103;-63
2023/11/26 04:26:04;;;;;;;32.00;30.33;;;;;;;;;;5020526;28;20030;-63
2023/11/26 04:28:30;;;;;;;32.10;30.42;;;;;;;;;;5017981;28;20422;-63
2023/11/26 04:30:57;;;;;;;31.25;29.63;;;;;;;;;;5020853;28;20322;-62
2023/11/26 04:33:22;;;;;;;32.05;30.38;;;;;;;;;;5019935;28;20052;-54
2023/11/26 04:35:48;;;;;;;30.45;28.85;;;;;;;;;;5021364;28;20069;-53
2023/11/26 04:38:13;;;;;;;32.47;30.48;;;;;;;;;;5022136;28;20044;-64
2023/11/26 04:40:39;;;;;;;32.63;30.88;;;;;;;;;;5017162;28;20037;-63
2023/11/26 04:43:06;;;;;;;31.77;30.05;;;;;;;;;;5016107;28;20033;-63
2023/11/26 04:45:31;;;;;;;33.05;30.35;;;;;;;;;;5016014;28;20099;-63
2023/11/26 04:47:57;;;;;;;33.97;31.98;;;;;;;;;;5017775;28;20503;-55
2023/11/26 04:50:23;;;;;;;33.30;31.58;;;;;;;;;;5018447;28;20037;-53
2023/11/26 04:52:50;;;;;;;32.05;30.40;;;;;;;;;;5021984;28;20045;-50
2023/11/26 04:55:19;;;;;;;33.25;31.52;;;;;;;;;;5019870;28;20034;-64
2023/11/26 04:57:49;;;;;;;32.13;30.45;;;;;;;;;;5019847;28;20030;-64
2023/11/26 05:00:15;;;;;;;31.98;30.30;;;;;;;;;;5013349;28;20057;-64
2023/11/26 05:02:41;;;;;;;34.22;32.42;;;;;;;;;;5018053;28;20132;-55
2023/11/26 05:05:09;;;;;;;35.30;33.45;;;;;;;;;;5024333;28;20108;-55
2023/11/26 05:07:39;;;;;;;35.08;33.25;;;;;;;;;;5022964;28;20095;-64
2023/11/26 05:10:09;;;;;;;34.10;32.28;;;;;;;;;;5019313;28;20409;-53
2023/11/26 05:12:35;;;;;;;33.65;31.85;;;;;;;;;;5022415;28;20081;-54
2023/11/26 05:15:01;;;;;;;33.90;32.10;;;;;;;;;;5027178;28;20048;-53
2023/11/26 05:17:26;;;;;;;34.17;32.38;;;;;;;;;;5022726;28;20774;-55
2023/11/26 05:19:51;;;;;;;34.05;32.15;;;;;;;;;;5023229;28;20072;-64
2023/11/26 05:22:17;;;;;;;35.55;32.92;;;;;;;;;;5022786;28;20041;-64
2023/11/26 05:24:43;;;;;;;35.60;33.72;;;;;;;;;;5023015;28;20037;-64
2023/11/26 05:27:09;;;;;;;36.85;34.92;;;;;;;;;;5018552;28;20384;-64
2023/11/26 05:29:35;;;;;;;35.78;33.85;;;;;;;;;;5021428;28;20044;-64
2023/11/26 05:32:00;;;;;;;34.83;33.05;;;;;;;;;;5023839;28;20401;-64
2023/11/26 05:34:26;;;;;;;38.10;36.13;;;;;;;;;;5023424;28;20030;-63
2023/11/26 05:36:51;;;;;;;34.67;32.90;;;;;;;;;;5020623;28;20041;-64
2023/11/26 05:39:17;;;;;;;36.50;34.60;;;;;;;;;;5023074;28;20037;-64
2023/11/26 05:41:42;;;;;;;34.85;33.08;;;;;;;;;;5024428;28;20033;-54
2023/11/26 05:44:09;;;;;;;33.45;31.70;;;;;;;;;;5008820;28;20040;-54
2023/11/26 05:46:34;;;;;;;33.28;31.55;;;;;;;;;;5019635;28;20038;-64
2023/11/26 05:49:00;;;;;;;33.08;31.35;;;;;;;;;;5018887;28;20041;-64
2023/11/26 05:51:27;;;;;;;33.03;31.30;;;;;;;;;;5022400;28;20045;-55
2023/11/26 05:53:53;;;;;;;35.50;33.58;;;;;;;;;;5022774;28;20033;-55
2023/11/26 05:56:18;;;;;;;36.33;34.45;;;;;;;;;;5017371;28;20076;-56
2023/11/26 05:58:44;;;;;;;36.17;34.25;;;;;;;;;;5018099;28;20048;-63
2023/11/26 06:01:10;;;;;;;34.97;33.17;;;;;;;;;;5020306;28;20042;-64
2023/11/26 06:03:36;;;;;;;35.38;33.38;;;;;;;;;;5019988;28;20103;-64
2023/11/26 06:06:03;;;;;;;34.97;33.03;;;;;;;;;;5022178;28;20116;-65
2023/11/26 06:08:29;;;;;;;34.15;32.40;;;;;;;;;;5019671;28;20091;-54
2023/11/26 06:10:54;;;;;;;33.40;31.65;;;;;;;;;;5022289;28;20029;-60
2023/11/26 06:13:20;;;;;;;33.65;31.92;;;;;;;;;;5022270;28;20514;-64
2023/11/26 06:15:45;;;;;;;33.97;32.17;;;;;;;;;;5025215;28;20527;-64
2023/11/26 06:18:10;;;;;;;36.33;34.45;;;;;;;;;;5021343;28;21773;-64
2023/11/26 06:20:36;;;;;;;34.88;33.08;;;;;;;;;;5021462;28;20544;-63
2023/11/26 06:23:02;;;;;;;35.53;33.42;;;;;;;;;;5024409;28;20041;-64
2023/11/26 06:25:27;;;;;;;35.28;33.30;;;;;;;;;;5023391;28;20044;-54
2023/11/26 06:27:52;;;;;;;34.75;32.53;;;;;;;;;;5021180;28;20171;-56
2023/11/26 06:30:18;;;;;;;32.53;30.83;;;;;;;;;;5021023;28;20038;-52
2023/11/26 06:32:43;;;;;;;33.72;31.98;;;;;;;;;;5022140;28;20055;-55
2023/11/26 06:35:09;;;;;;;32.65;30.95;;;;;;;;;;5019901;28;20032;-64
2023/11/26 06:37:34;;;;;;;34.53;32.70;;;;;;;;;;5023912;28;20158;-53
2023/11/26 06:40:00;;;;;;;34.65;32.88;;;;;;;;;;5025164;28;20026;-52
2023/11/26 06:42:25;;;;;;;32.60;30.85;;;;;;;;;;5019504;28;20585;-53
2023/11/26 06:44:51;;;;;;;33.30;31.55;;;;;;;;;;5017879;28;20375;-64
2023/11/26 06:47:16;;;;;;;33.38;31.63;;;;;;;;;;5022634;28;20977;-65
2023/11/26 06:49:41;;;;;;;31.67;29.98;;;;;;;;;;5022494;28;20040;-65
2023/11/26 06:52:07;;;;;;;33.90;32.05;;;;;;;;;;5022997;28;20048;-64
2023/11/26 06:54:33;;;;;;;31.90;30.20;;;;;;;;;;5021243;28;20045;-64
2023/11/26 06:56:58;;;;;;;31.27;29.63;;;;;;;;;;5024671;28;20037;-63
2023/11/26 06:59:24;;;;;;;32.88;31.02;;;;;;;;;;5021872;28;20033;-63
2023/11/26 07:01:49;;;;;;;32.97;31.15;;;;;;;;;;5023118;28;20505;-63
2023/11/26 07:04:15;;;;;;;31.20;29.58;;;;;;;;;;5021640;28;20081;-52
2023/11/26 07:06:42;;;;;;;32.13;30.45;;;;;;;;;;5020484;28;20099;-63
2023/11/26 07:09:09;;;;;;;32.53;30.77;;;;;;;;;;5020435;28;20032;-63
2023/11/26 07:11:35;;;;;;;33.28;31.48;;;;;;;;;;5019600;28;20045;-63
2023/11/26 07:14:02;;;;;;;31.92;30.23;;;;;;;;;;5021908;28;20029;-51
2023/11/26 07:16:27;;;;;;;33.13;31.40;;;;;;;;;;5024232;28;20348;-54
2023/11/26 07:18:53;;;;;;;33.65;31.83;;;;;;;;;;5017699;28;20033;-51
2023/11/26 07:21:18;;;;;;;34.80;32.72;;;;;;;;;;5020502;28;20037;-52
2023/11/26 07:23:46;;;;;;;33.28;31.50;;;;;;;;;;5021468;28;20041;-52
2023/11/26 07:26:12;;;;;;;32.13;30.42;;;;;;;;;;5020738;28;20493;-52
2023/11/26 07:28:41;;;;;;;31.60;29.95;;;;;;;;;;5020840;28;20033;-51
2023/11/26 07:31:15;;;;;;;33.20;31.45;;;;;;;;;;5023673;28;20052;-54
2023/11/26 07:33:40;;;;;;;32.50;30.80;;;;;;;;;;5024892;28;20039;-54
2023/11/26 07:36:19;;;;;;;31.98;30.27;;;;;;;;;;5023365;28;20041;-61
2023/11/26 07:38:44;;;;;;;33.45;31.67;;;;;;;;;;5022504;28;20040;-53
2023/11/26 07:41:10;;;;;;;33.35;31.50;;;;;;;;;;5019244;28;20037;-54
2023/11/26 07:43:42;;;;;;;34.30;32.50;;;;;;;;;;5019683;28;20057;-52
2023/11/26 07:46:09;;;;;;;35.88;33.95;;;;;;;;;;5021388;28;20040;-53
2023/11/26 07:48:36;;;;;;;36.00;34.10;;;;;;;;;;5019811;28;20113;-52
2023/11/26 07:51:03;;;;;;;34.35;32.55;;;;;;;;;;5021682;28;20390;-51
2023/11/26 07:53:30;;;;;;;35.38;33.58;;;;;;;;;;5019794;28;20030;-50
2023/11/26 07:55:56;;;;;;;34.38;32.50;;;;;;;;;;5022317;28;20056;-60
2023/11/26 07:58:25;;;;;;;36.30;34.40;;;;;;;;;;5021244;28;20057;-53
2023/11/26 08:00:51;;;;;;;36.72;34.63;;;;;;;;;;5023052;28;20103;-54
2023/11/26 08:03:17;;;;;;;37.70;34.92;;;;;;;;;;5020129;28;20041;-60
2023/11/26 08:05:43;;;;;;;37.17;35.28;;;;;;;;;;5018643;28;20037;-62
2023/11/26 08:08:13;;;;;;;36.97;35.08;;;;;;;;;;5022019;28;20038;-60
2023/11/26 08:10:38;;;;;;;37.25;35.25;;;;;;;;;;5019215;28;20030;-50
2023/11/26 08:13:07;;;;;;;38.47;36.47;;;;;;;;;;5022653;28;20090;-53
2023/11/26 08:15:33;;;;;;;38.75;36.75;;;;;;;;;;5022012;28;20026;-63
2023/11/26 08:17:59;;;;;;;37.28;35.28;;;;;;;;;;5027764;28;20630;-52
2023/11/26 08:20:24;;;;;;;36.83;34.83;;;;;;;;;;5024230;28;20021;-52
2023/11/26 08:22:51;;;;;;;36.70;34.80;;;;;;;;;;5026822;28;20124;-63
2023/11/26 08:25:19;;;;;;;37.10;35.17;;;;;;;;;;5027198;28;20037;-62
2023/11/26 08:27:48;;;;;;;36.58;34.45;;;;;;;;;;5022949;28;20563;-50
2023/11/26 08:30:30;;;;;;;34.28;32.47;;;;;;;;;;5026148;28;20038;-53
2023/11/26 08:32:59;;;;;;;34.33;32.08;;;;;;;;;;5025910;28;20087;-54
2023/11/26 08:35:29;;;;;;;32.97;31.23;;;;;;;;;;5029149;28;20037;-54
2023/11/26 08:37:58;;;;;;;30.83;29.23;;;;;;;;;;5024984;28;20344;-54
2023/11/26 08:40:25;;;;;;;28.73;27.23;;;;;;;;;;5023580;28;20670;-53
2023/11/26 08:42:53;;;;;;;28.60;27.10;;;;;;;;;;5024656;28;20041;-52
2023/11/26 08:45:23;;;;;;;31.25;29.55;;;;;;;;;;5024392;28;20037;-61
2023/11/26 08:47:48;;;;;;;30.98;29.27;;;;;;;;;;5028096;28;20037;-53
2023/11/26 08:50:14;;;;;;;30.08;28.27;;;;;;;;;;5028468;28;20345;-62
2023/11/26 08:52:39;;;;;;;29.05;27.50;;;;;;;;;;5026371;28;20033;-54
2023/11/26 08:55:05;;;;;;;27.40;25.95;;;;;;;;;;5025210;28;20069;-51
2023/11/26 08:57:38;;;;;;;26.95;25.45;;;;;;;;;;5026556;28;20034;-62
2023/11/26 09:00:09;;;;;;;26.70;25.20;;;;;;;;;;5029386;28;20041;-62
2023/11/26 09:02:35;;;;;;;26.95;25.45;;;;;;;;;;5026964;28;20039;-61
2023/11/26 09:05:02;;;;;;;27.13;25.63;;;;;;;;;;5023884;28;20433;-62
2023/11/26 09:07:27;;;;;;;26.10;24.70;;;;;;;;;;5023714;28;20122;-61
2023/11/26 09:09:53;;;;;;;26.92;25.48;;;;;;;;;;5024833;28;20037;-51
2023/11/26 09:12:22;;;;;;;26.13;24.63;;;;;;;;;;5020790;28;20515;-61
2023/11/26 09:14:48;;;;;;;27.35;25.65;;;;;;;;;;5024650;28;20029;-61
2023/11/26 09:17:13;;;;;;;27.63;26.13;;;;;;;;;;5023397;28;20034;-61
2023/11/26 09:19:38;;;;;;;27.40;25.95;;;;;;;;;;5026750;28;20119;-52
2023/11/26 09:22:04;;;;;;;28.55;27.05;;;;;;;;;;5021638;28;20046;-51
2023/11/26 09:24:29;;;;;;;27.23;25.80;;;;;;;;;;5022108;28;20043;-52
2023/11/26 09:26:54;;;;;;;28.05;26.52;;;;;;;;;;5021722;28;20037;-60
2023/11/26 09:29:20;;;;;;;30.45;28.77;;;;;;;;;;5025574;28;20065;-52
2023/11/26 09:31:45;;;;;;;29.23;27.67;;;;;;;;;;5019416;28;20037;-48
2023/11/26 09:34:11;;;;;;;31.55;29.90;;;;;;;;;;5021632;28;20490;-52
2023/11/26 09:36:41;;;;;;;31.88;30.20;;;;;;;;;;5022214;28;20022;-52
2023/11/26 09:39:07;;;;;;;30.03;28.43;;;;;;;;;;5023929;28;20045;-50
2023/11/26 09:41:33;;;;;;;30.85;29.25;;;;;;;;;;5023002;28;20026;-61
2023/11/26 09:43:58;;;;;;;30.88;29.17;;;;;;;;;;5022504;28;20448;-51
2023/11/26 09:46:25;;;;;;;28.67;27.15;;;;;;;;;;5026260;28;20030;-53
2023/11/26 09:48:51;;;;;;;30.92;29.23;;;;;;;;;;5020138;28;20092;-61
2023/11/26 09:51:19;;;;;;;32.35;30.65;;;;;;;;;;5021967;28;20097;-61
2023/11/26 09:53:45;;;;;;;29.95;28.35;;;;;;;;;;5024980;28;20055;-62
2023/11/26 09:56:11;;;;;;;31.75;30.05;;;;;;;;;;5021724;28;20034;-62
2023/11/26 09:58:38;;;;;;;30.42;28.83;;;;;;;;;;5020012;28;20044;-61
2023/11/26 10:01:04;;;;;;;32.28;30.48;;;;;;;;;;5025265;28;20071;-61
2023/11/26 10:03:29;;;;;;;30.30;28.38;;;;;;;;;;5023359;28;20073;-52
2023/11/26 10:06:10;;;;;;;31.48;29.88;;;;;;;;;;5027753;28;20370;-51
2023/11/26 10:08:36;;;;;;;29.95;28.35;;;;;;;;;;5020476;28;20142;-60
2023/11/26 10:11:02;;;;;;;31.50;29.85;;;;;;;;;;5026550;28;20120;-49
2023/11/26 10:13:40;;;;;;;33.55;31.75;;;;;;;;;;5025123;28;20033;-50
2023/11/26 10:16:08;;;;;;;31.17;29.50;;;;;;;;;;5023565;28;20053;-61
2023/11/26 10:18:41;;;;;;;33.60;31.80;;;;;;;;;;5020545;28;20632;-61
2023/11/26 10:21:08;;;;;;;30.58;28.90;;;;;;;;;;5022940;28;20065;-49
2023/11/26 10:23:38;;;;;;;32.72;30.83;;;;;;;;;;5023738;28;20041;-47
2023/11/26 10:26:17;;;;;;;32.77;31.00;;;;;;;;;;5025237;28;20033;-62
2023/11/26 10:29:03;;;;;;;34.97;33.08;;;;;;;;;;5020772;28;20041;-48
2023/11/26 10:31:29;;;;;;;31.02;29.42;;;;;;;;;;5021700;28;20030;-46
2023/11/26 10:34:15;;;;;;;32.03;30.27;;;;;;;;;;5020543;28;20106;-53
2023/11/26 10:36:41;;;;;;;30.85;29.15;;;;;;;;;;5019541;28;20113;-47
2023/11/26 10:39:09;;;;;;;32.40;30.65;;;;;;;;;;5028531;28;20119;-61
2023/11/26 10:41:37;;;;;;;29.90;28.25;;;;;;;;;;5023324;28;20036;-48
2023/11/26 10:44:05;;;;;;;31.25;29.45;;;;;;;;;;5026411;28;20055;-61
2023/11/26 10:46:33;;;;;;;31.58;29.73;;;;;;;;;;5022977;28;20034;-50
2023/11/26 10:49:11;;;;;;;30.45;28.75;;;;;;;;;;5023676;28;20021;-53
2023/11/26 10:51:39;;;;;;;28.02;26.52;;;;;;;;;;5020754;28;20514;-52
2023/11/26 10:54:10;;;;;;;29.70;28.10;;;;;;;;;;5021012;28;20068;-52
2023/11/26 10:56:41;;;;;;;28.20;26.70;;;;;;;;;;5020442;28;20047;-52
2023/11/26 10:59:16;;;;;;;31.70;29.15;;;;;;;;;;5022846;28;20040;-51
2023/11/26 11:01:43;;;;;;;29.05;27.48;;;;;;;;;;5024208;28;20072;-53
2023/11/26 11:04:14;;;;;;;30.45;28.75;;;;;;;;;;5019286;28;20037;-63
2023/11/26 11:06:40;;;;;;;27.98;26.48;;;;;;;;;;5023468;28;20063;-62
2023/11/26 11:09:12;;;;;;;29.55;27.95;;;;;;;;;;5023587;28;20178;-63
2023/11/26 11:12:20;;;;;;;28.95;27.25;;;;;;;;;;5024027;28;20033;-62
2023/11/26 11:14:46;;;;;;;28.35;26.85;;;;;;;;;;5019443;28;20163;-48
2023/11/26 11:17:27;;;;;;;28.23;26.63;;;;;;;;;;5021494;28;20087;-54
2023/11/26 11:19:53;;;;;;;27.48;25.98;;;;;;;;;;5020391;28;20034;-61
2023/11/26 11:22:19;;;;;;;29.08;27.48;;;;;;;;;;5026026;28;20761;-54
2023/11/26 11:24:45;;;;;;;27.30;25.80;;;;;;;;;;5019720;28;20064;-50
2023/11/26 11:27:11;;;;;;;27.60;25.23;;;;;;;;;;5024963;28;20029;-50
2023/11/26 11:29:36;;;;;;;26.52;25.10;;;;;;;;;;5022529;28;20040;-51
2023/11/26 11:32:02;;;;;;;26.48;25.08;;;;;;;;;;5020347;28;20061;-51
2023/11/26 11:34:29;;;;;;;26.77;25.17;;;;;;;;;;5021629;28;20030;-54
2023/11/26 11:36:56;;;;;;;25.00;23.70;;;;;;;;;;5019225;28;20076;-63
2023/11/26 11:39:43;;;;;;;27.00;25.52;;;;;;;;;;5021356;28;20533;-60
2023/11/26 11:42:10;;;;;;;25.08;23.65;;;;;;;;;;5020797;28;20045;-61
2023/11/26 11:44:41;;;;;;;28.58;26.98;;;;;;;;;;5022692;28;20029;-50
2023/11/26 11:47:09;;;;;;;26.05;24.65;;;;;;;;;;5020687;28;20126;-61
2023/11/26 11:49:46;;;;;;;26.05;24.65;;;;;;;;;;5022654;28;20103;-51
2023/11/26 11:52:12;;;;;;;26.85;25.45;;;;;;;;;;5029768;28;20155;-53
2023/11/26 11:55:23;;;;;;;27.63;26.02;;;;;;;;;;5023654;28;20115;-53
2023/11/26 11:57:48;;;;;;;27.90;26.40;;;;;;;;;;5025055;28;20033;-60
2023/11/26 12:00:21;;;;;;;26.33;24.92;;;;;;;;;;5025700;28;20106;-50
2023/11/26 12:02:52;;;;;;;28.75;27.25;;;;;;;;;;5025601;28;20035;-49
2023/11/26 12:05:22;;;;;;;26.65;25.13;;;;;;;;;;5022801;28;20028;-47
2023/11/26 12:07:47;;;;;;;26.73;25.33;;;;;;;;;;5024387;28;20043;-53
2023/11/26 12:10:25;;;;;;;26.27;24.88;;;;;;;;;;5024420;28;20033;-53
2023/11/26 12:13:04;;;;;;;27.98;26.48;;;;;;;;;;5023978;28;20037;-62
2023/11/26 12:15:30;;;;;;;25.20;23.80;;;;;;;;;;5024981;28;20030;-62
2023/11/26 12:17:57;;;;;;;25.25;23.85;;;;;;;;;;5025163;28;20029;-49
2023/11/26 12:20:23;;;;;;;28.70;26.83;;;;;;;;;;5022484;28;20060;-52
2023/11/26 12:22:50;;;;;;;26.65;25.20;;;;;;;;;;5023111;28;20032;-62
2023/11/26 12:25:21;;;;;;;26.55;25.15;;;;;;;;;;5028265;28;20690;-52
2023/11/26 12:28:05;;;;;;;26.45;24.95;;;;;;;;;;5024498;28;20037;-51
2023/11/26 12:30:33;;;;;;;27.42;25.92;;;;;;;;;;5019501;28;20037;-50
2023/11/26 12:32:59;;;;;;;28.92;27.10;;;;;;;;;;5024804;28;20025;-61
2023/11/26 12:35:27;;;;;;;27.88;26.40;;;;;;;;;;5023744;28;20467;-51
2023/11/26 12:37:53;;;;;;;27.05;25.60;;;;;;;;;;5026802;28;20060;-49
2023/11/26 12:40:18;;;;;;;28.98;27.20;;;;;;;;;;5024351;28;20068;-54
2023/11/26 12:42:44;;;;;;;28.05;26.52;;;;;;;;;;5024741;28;20511;-53
2023/11/26 12:45:10;;;;;;;26.50;25.08;;;;;;;;;;5021625;28;20061;-51
2023/11/26 12:47:53;;;;;;;26.48;25.08;;;;;;;;;;5023389;28;20067;-48
2023/11/26 12:50:19;;;;;;;26.45;25.05;;;;;;;;;;5025771;28;20025;-53
2023/11/26 12:52:45;;;;;;;27.30;25.73;;;;;;;;;;5024060;28;20128;-61
2023/11/26 12:55:11;;;;;;;25.52;24.13;;;;;;;;;;5022739;28;20034;-53
2023/11/26 12:57:40;;;;;;;27.42;25.92;;;;;;;;;;5023345;28;20053;-49
2023/11/26 13:00:10;;;;;;;27.33;25.90;;;;;;;;;;5023227;28;20033;-53
2023/11/26 13:02:37;;;;;;;27.50;26.05;;;;;;;;;;5025857;28;20034;-50
2023/11/26 13:05:23;;;;;;;29.70;27.60;;;;;;;;;;5025567;28;20072;-62
2023/11/26 13:07:49;;;;;;;29.50;27.27;;;;;;;;;;5024778;28;20688;-63
2023/11/26 13:10:14;;;;;;;25.95;24.55;;;;;;;;;;5027578;28;20037;-63
2023/11/26 13:12:43;;;;;;;29.77;27.98;;;;;;;;;;5023949;28;20037;-62
2023/11/26 13:15:10;;;;;;;27.75;26.15;;;;;;;;;;5027213;28;20060;-62
2023/11/26 13:17:35;;;;;;;28.00;26.50;;;;;;;;;;5027349;28;20490;-62
2023/11/26 13:20:00;;;;;;;27.10;25.70;;;;;;;;;;5026107;28;20124;-63
2023/11/26 13:22:26;;;;;;;27.40;25.98;;;;;;;;;;5026559;28;20471;-61
2023/11/26 13:24:51;;;;;;;28.23;26.73;;;;;;;;;;5023852;28;20043;-63
2023/11/26 13:27:17;;;;;;;28.58;27.02;;;;;;;;;;5025606;28;20034;-62
2023/11/26 13:29:43;;;;;;;27.42;25.92;;;;;;;;;;5026870;28;20109;-47
2023/11/26 13:32:08;;;;;;;30.40;28.73;;;;;;;;;;5022817;28;20033;-61
2023/11/26 13:34:33;;;;;;;29.85;28.27;;;;;;;;;;5025555;28;20069;-62
2023/11/26 13:36:59;;;;;;;29.90;28.30;;;;;;;;;;5024859;28;20112;-62
2023/11/26 13:39:25;;;;;;;29.25;27.58;;;;;;;;;;5027458;28;20045;-55
2023/11/26 13:41:50;;;;;;;31.77;30.08;;;;;;;;;;5026134;28;20104;-54
2023/11/26 13:44:15;;;;;;;30.80;28.95;;;;;;;;;;5022581;28;20152;-54
2023/11/26 13:46:42;;;;;;;30.13;28.52;;;;;;;;;;5023978;28;20036;-53
2023/11/26 13:49:08;;;;;;;27.77;26.27;;;;;;;;;;5021919;28;20061;-49
2023/11/26 13:51:33;;;;;;;27.27;25.85;;;;;;;;;;5023588;28;20069;-49
2023/11/26 13:53:58;;;;;;;29.17;27.50;;;;;;;;;;5021054;28;20446;-53
2023/11/26 13:56:25;;;;;;;30.10;28.52;;;;;;;;;;5027076;28;20450;-53
2023/11/26 13:58:51;;;;;;;33.78;31.67;;;;;;;;;;5021851;28;20029;-50
2023/11/26 14:01:16;;;;;;;30.30;28.70;;;;;;;;;;5027433;28;20044;-54
2023/11/26 14:03:42;;;;;;;33.85;31.95;;;;;;;;;;5021050;28;20568;-53
2023/11/26 14:06:09;;;;;;;29.95;28.27;;;;;;;;;;5024070;28;20378;-55
2023/11/26 14:08:35;;;;;;;31.58;29.42;;;;;;;;;;5026070;28;20455;-50
2023/11/26 14:11:00;;;;;;;30.35;28.55;;;;;;;;;;5021190;28;20360;-50
2023/11/26 14:13:27;;;;;;;29.35;27.75;;;;;;;;;;5022180;28;20052;-60
2023/11/26 14:15:52;;;;;;;27.73;26.00;;;;;;;;;;5024398;28;20034;-62
2023/11/26 14:18:18;;;;;;;27.98;26.48;;;;;;;;;;5020929;28;20095;-51
2023/11/26 14:20:43;;;;;;;27.45;25.98;;;;;;;;;;5024890;28;20337;-53